sensor_id;sensor_type;location;lat;lon;timestamp;P1;durP1;ratioP1;P2;durP2;ratioP2
75516;SDS011;64097;52.548;13.406;2023-03-31T06:05:08;2.75;;;1.23;;
75516;SDS011;64097;52.548;13.406;2023-03-31T06:07:34;2.33;;;1.10;;
75516;SDS011;64097;52.548;13.406;2023-03-31T06:10:00;2.58;;;1.27;;
75516;SDS011;64097;52.548;13.406;2023-03-31T06:12:26;3.05;;;1.42;;
75516;SDS011;64097;52.548;13.406;2023-03-31T06:14:52;2.97;;;1.50;;
75516;SDS011;64097;52.548;13.406;2023-03-31T06:17:17;4.65;;;1.40;;
75516;SDS011;64097;52.548;13.406;2023-03-31T06:19:43;3.90;;;1.65;;
75516;SDS011;64097;52.548;13.406;2023-03-31T06:22:09;3.88;;;1.83;;
75516;SDS011;64097;52.548;13.406;2023-03-31T06:24:35;2.85;;;1.38;;
75516;SDS011;64097;52.548;13.406;2023-03-31T06:27:00;3.80;;;1.55;;
75516;SDS011;64097;52.548;13.406;2023-03-31T06:29:27;5.05;;;1.60;;
75516;SDS011;64097;52.548;13.406;2023-03-31T06:31:53;3.25;;;1.30;;
75516;SDS011;64097;52.548;13.406;2023-03-31T06:34:19;3.60;;;1.20;;
75516;SDS011;64097;52.548;13.406;2023-03-31T06:36:45;4.05;;;1.40;;
75516;SDS011;64097;52.548;13.406;2023-03-31T06:39:11;3.55;;;1.13;;
75516;SDS011;64097;52.548;13.406;2023-03-31T06:41:36;3.53;;;1.50;;
75516;SDS011;64097;52.548;13.406;2023-03-31T06:44:03;4.25;;;1.48;;
75516;SDS011;64097;52.548;13.406;2023-03-31T06:46:28;5.10;;;1.77;;
75516;SDS011;64097;52.548;13.406;2023-03-31T06:48:54;3.75;;;1.73;;
75516;SDS011;64097;52.548;13.406;2023-03-31T06:51:20;5.13;;;1.80;;
75516;SDS011;64097;52.548;13.406;2023-03-31T06:53:46;3.15;;;1.65;;
75516;SDS011;64097;52.548;13.406;2023-03-31T06:56:12;3.38;;;1.40;;
75516;SDS011;64097;52.548;13.406;2023-03-31T06:58:37;3.30;;;1.42;;
75516;SDS011;64097;52.548;13.406;2023-03-31T07:01:04;5.05;;;1.73;;
75516;SDS011;64097;52.548;13.406;2023-03-31T07:03:30;3.72;;;1.40;;
75516;SDS011;64097;52.548;13.406;2023-03-31T07:05:56;4.38;;;1.50;;
75516;SDS011;64097;52.548;13.406;2023-03-31T07:08:22;3.60;;;1.60;;
75516;SDS011;64097;52.548;13.406;2023-03-31T07:10:49;2.72;;;1.45;;
75516;SDS011;64097;52.548;13.406;2023-03-31T07:13:19;5.18;;;1.88;;
75516;SDS011;64097;52.548;13.406;2023-03-31T07:15:49;2.60;;;1.70;;
75516;SDS011;64097;52.548;13.406;2023-03-31T07:18:17;4.50;;;1.52;;
75516;SDS011;64097;52.548;13.406;2023-03-31T07:20:43;4.80;;;1.65;;
75516;SDS011;64097;52.548;13.406;2023-03-31T07:23:13;3.85;;;1.70;;
75516;SDS011;64097;52.548;13.406;2023-03-31T07:25:39;4.63;;;1.60;;
75516;SDS011;64097;52.548;13.406;2023-03-31T07:28:04;3.00;;;1.35;;
75516;SDS011;64097;52.548;13.406;2023-03-31T07:30:31;6.00;;;1.90;;
75516;SDS011;64097;52.548;13.406;2023-03-31T07:32:57;5.10;;;1.55;;
75516;SDS011;64097;52.548;13.406;2023-03-31T07:35:23;4.78;;;1.70;;
75516;SDS011;64097;52.548;13.406;2023-03-31T07:37:49;5.78;;;2.08;;
75516;SDS011;64097;52.548;13.406;2023-03-31T07:40:17;6.05;;;1.80;;
75516;SDS011;64097;52.548;13.406;2023-03-31T07:42:49;5.25;;;1.60;;
75516;SDS011;64097;52.548;13.406;2023-03-31T07:45:16;6.30;;;1.48;;
75516;SDS011;64097;52.548;13.406;2023-03-31T07:47:43;6.05;;;1.65;;
75516;SDS011;64097;52.548;13.406;2023-03-31T07:50:10;6.65;;;1.67;;
75516;SDS011;64097;52.548;13.406;2023-03-31T07:52:37;6.55;;;1.95;;
75516;SDS011;64097;52.548;13.406;2023-03-31T07:55:03;6.45;;;2.33;;
75516;SDS011;64097;52.548;13.406;2023-03-31T07:57:30;5.90;;;1.88;;
75516;SDS011;64097;52.548;13.406;2023-03-31T07:59:56;5.60;;;1.50;;
75516;SDS011;64097;52.548;13.406;2023-03-31T08:02:22;4.35;;;1.67;;
75516;SDS011;64097;52.548;13.406;2023-03-31T08:04:47;3.33;;;1.58;;
75516;SDS011;64097;52.548;13.406;2023-03-31T08:07:14;3.30;;;1.38;;
75516;SDS011;64097;52.548;13.406;2023-03-31T08:09:41;3.88;;;1.40;;
75516;SDS011;64097;52.548;13.406;2023-03-31T08:12:08;5.00;;;1.60;;
75516;SDS011;64097;52.548;13.406;2023-03-31T08:14:34;5.28;;;1.45;;
75516;SDS011;64097;52.548;13.406;2023-03-31T08:17:00;4.45;;;1.50;;
75516;SDS011;64097;52.548;13.406;2023-03-31T08:19:26;5.68;;;1.67;;
75516;SDS011;64097;52.548;13.406;2023-03-31T08:21:52;3.83;;;1.60;;
75516;SDS011;64097;52.548;13.406;2023-03-31T08:24:19;3.35;;;2.00;;
75516;SDS011;64097;52.548;13.406;2023-03-31T08:26:45;4.82;;;1.63;;
75516;SDS011;64097;52.548;13.406;2023-03-31T08:29:11;4.13;;;1.60;;
75516;SDS011;64097;52.548;13.406;2023-03-31T08:31:37;3.75;;;1.60;;
75516;SDS011;64097;52.548;13.406;2023-03-31T08:34:03;4.43;;;1.65;;
75516;SDS011;64097;52.548;13.406;2023-03-31T08:36:29;2.95;;;1.40;;
75516;SDS011;64097;52.548;13.406;2023-03-31T08:38:55;5.70;;;1.80;;
75516;SDS011;64097;52.548;13.406;2023-03-31T08:44:04;4.13;;;1.52;;
75516;SDS011;64097;52.548;13.406;2023-03-31T08:46:34;3.53;;;1.35;;
75516;SDS011;64097;52.548;13.406;2023-03-31T08:49:02;4.13;;;1.67;;
75516;SDS011;64097;52.548;13.406;2023-03-31T08:51:31;3.95;;;1.33;;
75516;SDS011;64097;52.548;13.406;2023-03-31T08:54:02;4.43;;;1.63;;
75516;SDS011;64097;52.548;13.406;2023-03-31T08:56:41;4.30;;;1.60;;
75516;SDS011;64097;52.548;13.406;2023-03-31T08:59:28;3.92;;;1.65;;
75516;SDS011;64097;52.548;13.406;2023-03-31T09:02:01;4.47;;;1.50;;
75516;SDS011;64097;52.548;13.406;2023-03-31T09:04:42;4.75;;;1.70;;
75516;SDS011;64097;52.548;13.406;2023-03-31T09:09:53;4.22;;;1.85;;
75516;SDS011;64097;52.548;13.406;2023-03-31T09:15:39;4.80;;;1.70;;
75516;SDS011;64097;52.548;13.406;2023-03-31T09:18:31;3.65;;;1.52;;
75516;SDS011;64097;52.548;13.406;2023-03-31T09:23:50;4.32;;;1.38;;
75516;SDS011;64097;52.548;13.406;2023-03-31T09:26:40;4.13;;;1.50;;
75516;SDS011;64097;52.548;13.406;2023-03-31T09:29:18;3.13;;;1.30;;
75516;SDS011;64097;52.548;13.406;2023-03-31T09:32:24;5.32;;;1.67;;
75516;SDS011;64097;52.548;13.406;2023-03-31T09:34:58;2.88;;;1.20;;
75516;SDS011;64097;52.548;13.406;2023-03-31T09:37:45;2.33;;;1.20;;
75516;SDS011;64097;52.548;13.406;2023-03-31T09:40:15;4.90;;;1.63;;
75516;SDS011;64097;52.548;13.406;2023-03-31T09:42:42;5.22;;;1.95;;
75516;SDS011;64097;52.548;13.406;2023-03-31T09:45:17;3.15;;;1.35;;
75516;SDS011;64097;52.548;13.406;2023-03-31T09:47:46;3.45;;;1.30;;
75516;SDS011;64097;52.548;13.406;2023-03-31T09:50:16;3.30;;;1.25;;
75516;SDS011;64097;52.548;13.406;2023-03-31T09:52:51;4.13;;;1.70;;
75516;SDS011;64097;52.548;13.406;2023-03-31T09:55:21;2.95;;;1.20;;
75516;SDS011;64097;52.548;13.406;2023-03-31T09:57:50;2.28;;;1.20;;
75516;SDS011;64097;52.548;13.406;2023-03-31T10:00:18;3.25;;;1.33;;
75516;SDS011;64097;52.548;13.406;2023-03-31T10:05:26;3.03;;;1.23;;
75516;SDS011;64097;52.548;13.406;2023-03-31T10:10:53;3.70;;;1.40;;
75516;SDS011;64097;52.548;13.406;2023-03-31T10:13:24;5.10;;;1.40;;
75516;SDS011;64097;52.548;13.406;2023-03-31T10:16:04;4.47;;;1.55;;
75516;SDS011;64097;52.548;13.406;2023-03-31T10:18:37;2.65;;;1.30;;
75516;SDS011;64097;52.548;13.406;2023-03-31T10:21:05;3.58;;;1.25;;
75516;SDS011;64097;52.548;13.406;2023-03-31T10:23:48;3.53;;;1.33;;
75516;SDS011;64097;52.548;13.406;2023-03-31T10:26:19;3.10;;;1.30;;
75516;SDS011;64097;52.548;13.406;2023-03-31T10:28:49;2.90;;;1.13;;
75516;SDS011;64097;52.548;13.406;2023-03-31T10:31:19;4.22;;;1.60;;
75516;SDS011;64097;52.548;13.406;2023-03-31T10:33:50;4.32;;;1.33;;
75516;SDS011;64097;52.548;13.406;2023-03-31T10:38:42;3.03;;;1.10;;
75516;SDS011;64097;52.548;13.406;2023-03-31T10:41:09;3.35;;;1.27;;
75516;SDS011;64097;52.548;13.406;2023-03-31T10:43:38;3.78;;;1.50;;
75516;SDS011;64097;52.548;13.406;2023-03-31T10:46:06;4.05;;;1.60;;
75516;SDS011;64097;52.548;13.406;2023-03-31T10:48:33;3.10;;;1.50;;
75516;SDS011;64097;52.548;13.406;2023-03-31T10:51:09;6.38;;;1.50;;
75516;SDS011;64097;52.548;13.406;2023-03-31T10:53:47;3.60;;;1.40;;
75516;SDS011;64097;52.548;13.406;2023-03-31T11:05:05;3.63;;;1.52;;
75516;SDS011;64097;52.548;13.406;2023-03-31T11:12:29;3.92;;;1.33;;
75516;SDS011;64097;52.548;13.406;2023-03-31T11:17:41;5.18;;;1.80;;
75516;SDS011;64097;52.548;13.406;2023-03-31T11:20:19;5.65;;;1.73;;
75516;SDS011;64097;52.548;13.406;2023-03-31T11:31:32;2.67;;;1.20;;
75516;SDS011;64097;52.548;13.406;2023-03-31T11:36:45;3.08;;;1.27;;
75516;SDS011;64097;52.548;13.406;2023-03-31T11:44:53;3.72;;;1.23;;
75516;SDS011;64097;52.548;13.406;2023-03-31T11:47:25;2.90;;;1.33;;
75516;SDS011;64097;52.548;13.406;2023-03-31T11:49:56;3.28;;;1.20;;
75516;SDS011;64097;52.548;13.406;2023-03-31T11:52:44;2.97;;;1.20;;
75516;SDS011;64097;52.548;13.406;2023-03-31T11:55:17;2.58;;;1.10;;
75516;SDS011;64097;52.548;13.406;2023-03-31T11:57:58;3.40;;;1.17;;
75516;SDS011;64097;52.548;13.406;2023-03-31T12:00:35;2.58;;;1.00;;
75516;SDS011;64097;52.548;13.406;2023-03-31T12:05:58;3.95;;;1.30;;
75516;SDS011;64097;52.548;13.406;2023-03-31T12:08:36;2.57;;;1.40;;
75516;SDS011;64097;52.548;13.406;2023-03-31T12:11:18;3.45;;;1.60;;
75516;SDS011;64097;52.548;13.406;2023-03-31T12:13:59;2.35;;;1.38;;
75516;SDS011;64097;52.548;13.406;2023-03-31T12:16:39;4.13;;;1.77;;
75516;SDS011;64097;52.548;13.406;2023-03-31T12:22:18;4.63;;;1.60;;
75516;SDS011;64097;52.548;13.406;2023-03-31T12:24:51;4.18;;;1.58;;
75516;SDS011;64097;52.548;13.406;2023-03-31T12:27:37;3.40;;;1.60;;
75516;SDS011;64097;52.548;13.406;2023-03-31T12:30:08;3.47;;;1.50;;
75516;SDS011;64097;52.548;13.406;2023-03-31T12:33:05;5.35;;;1.90;;
75516;SDS011;64097;52.548;13.406;2023-03-31T12:38:45;3.58;;;2.10;;
75516;SDS011;64097;52.548;13.406;2023-03-31T12:44:35;3.67;;;1.60;;
75516;SDS011;64097;52.548;13.406;2023-03-31T12:50:01;3.60;;;1.60;;
75516;SDS011;64097;52.548;13.406;2023-03-31T12:52:57;3.15;;;1.50;;
75516;SDS011;64097;52.548;13.406;2023-03-31T13:03:48;3.42;;;1.00;;
75516;SDS011;64097;52.548;13.406;2023-03-31T13:08:56;1.55;;;0.75;;
75516;SDS011;64097;52.548;13.406;2023-03-31T13:11:51;1.83;;;0.85;;
75516;SDS011;64097;52.548;13.406;2023-03-31T13:16:44;1.60;;;0.90;;
75516;SDS011;64097;52.548;13.406;2023-03-31T13:19:11;2.58;;;1.33;;
75516;SDS011;64097;52.548;13.406;2023-03-31T13:21:55;3.40;;;1.25;;
75516;SDS011;64097;52.548;13.406;2023-03-31T13:24:22;2.78;;;1.33;;
75516;SDS011;64097;52.548;13.406;2023-03-31T13:26:52;1.98;;;1.15;;
75516;SDS011;64097;52.548;13.406;2023-03-31T14:11:23;3.17;;;1.60;;
75516;SDS011;64097;52.548;13.406;2023-03-31T14:16:58;1.75;;;1.00;;
75516;SDS011;64097;52.548;13.406;2023-03-31T14:25:04;1.55;;;0.80;;
75516;SDS011;64097;52.548;13.406;2023-03-31T14:36:05;1.50;;;0.70;;
75516;SDS011;64097;52.548;13.406;2023-03-31T14:38:39;0.90;;;0.50;;
75516;SDS011;64097;52.548;13.406;2023-03-31T14:41:05;1.88;;;0.50;;
75516;SDS011;64097;52.548;13.406;2023-03-31T14:43:39;0.90;;;0.65;;
75516;SDS011;64097;52.548;13.406;2023-03-31T14:46:12;1.20;;;0.70;;
75516;SDS011;64097;52.548;13.406;2023-03-31T14:48:44;0.90;;;0.63;;
75516;SDS011;64097;52.548;13.406;2023-03-31T14:51:16;1.83;;;0.80;;
75516;SDS011;64097;52.548;13.406;2023-03-31T14:53:47;0.95;;;0.70;;
75516;SDS011;64097;52.548;13.406;2023-03-31T14:56:36;0.90;;;0.70;;
75516;SDS011;64097;52.548;13.406;2023-03-31T14:59:04;2.25;;;0.77;;
75516;SDS011;64097;52.548;13.406;2023-03-31T15:01:32;0.70;;;0.60;;
75516;SDS011;64097;52.548;13.406;2023-03-31T15:04:14;1.20;;;0.60;;
75516;SDS011;64097;52.548;13.406;2023-03-31T15:06:44;1.30;;;0.52;;
75516;SDS011;64097;52.548;13.406;2023-03-31T15:09:22;0.50;;;0.40;;
75516;SDS011;64097;52.548;13.406;2023-03-31T15:11:53;1.48;;;0.60;;
75516;SDS011;64097;52.548;13.406;2023-03-31T15:14:35;1.90;;;0.80;;
75516;SDS011;64097;52.548;13.406;2023-03-31T15:17:18;1.48;;;0.93;;
75516;SDS011;64097;52.548;13.406;2023-03-31T15:19:55;2.45;;;1.20;;
75516;SDS011;64097;52.548;13.406;2023-03-31T15:22:23;2.20;;;1.40;;
75516;SDS011;64097;52.548;13.406;2023-03-31T15:24:51;2.08;;;1.20;;
75516;SDS011;64097;52.548;13.406;2023-03-31T15:27:36;1.20;;;0.93;;
75516;SDS011;64097;52.548;13.406;2023-03-31T15:30:08;1.55;;;0.80;;
75516;SDS011;64097;52.548;13.406;2023-03-31T15:32:41;0.88;;;0.57;;
75516;SDS011;64097;52.548;13.406;2023-03-31T15:35:10;1.23;;;0.60;;
75516;SDS011;64097;52.548;13.406;2023-03-31T15:37:43;1.00;;;0.80;;
75516;SDS011;64097;52.548;13.406;2023-03-31T15:43:41;1.25;;;0.90;;
75516;SDS011;64097;52.548;13.406;2023-03-31T15:45:44;1.13;;;0.63;;
75516;SDS011;64097;52.548;13.406;2023-03-31T15:48:21;1.13;;;0.55;;
75516;SDS011;64097;52.548;13.406;2023-03-31T15:50:57;1.00;;;0.60;;
75516;SDS011;64097;52.548;13.406;2023-03-31T15:53:50;1.20;;;0.63;;
75516;SDS011;64097;52.548;13.406;2023-03-31T15:56:30;0.80;;;0.63;;
75516;SDS011;64097;52.548;13.406;2023-03-31T15:58:57;1.35;;;0.70;;
75516;SDS011;64097;52.548;13.406;2023-03-31T16:04:05;0.90;;;0.60;;
75516;SDS011;64097;52.548;13.406;2023-03-31T16:09:06;1.25;;;0.77;;
75516;SDS011;64097;52.548;13.406;2023-03-31T16:11:36;1.30;;;0.82;;
75516;SDS011;64097;52.548;13.406;2023-03-31T16:16:53;0.93;;;0.60;;
75516;SDS011;64097;52.548;13.406;2023-03-31T16:19:22;0.95;;;0.68;;
75516;SDS011;64097;52.548;13.406;2023-03-31T16:21:52;1.45;;;0.80;;
75516;SDS011;64097;52.548;13.406;2023-03-31T16:24:20;1.52;;;0.80;;
75516;SDS011;64097;52.548;13.406;2023-03-31T16:26:56;1.98;;;1.20;;
75516;SDS011;64097;52.548;13.406;2023-03-31T16:29:30;1.60;;;0.90;;
75516;SDS011;64097;52.548;13.406;2023-03-31T16:34:31;2.72;;;1.00;;
75516;SDS011;64097;52.548;13.406;2023-03-31T16:36:57;1.50;;;0.90;;
75516;SDS011;64097;52.548;13.406;2023-03-31T16:39:22;1.63;;;1.02;;
75516;SDS011;64097;52.548;13.406;2023-03-31T16:41:48;2.20;;;1.30;;
75516;SDS011;64097;52.548;13.406;2023-03-31T16:44:14;2.40;;;1.33;;
75516;SDS011;64097;52.548;13.406;2023-03-31T16:46:40;1.30;;;1.00;;
75516;SDS011;64097;52.548;13.406;2023-03-31T16:49:05;2.05;;;1.08;;
75516;SDS011;64097;52.548;13.406;2023-03-31T16:51:31;1.30;;;0.90;;
75516;SDS011;64097;52.548;13.406;2023-03-31T16:53:57;1.15;;;0.80;;
75516;SDS011;64097;52.548;13.406;2023-03-31T16:56:22;1.30;;;0.85;;
75516;SDS011;64097;52.548;13.406;2023-03-31T16:58:48;1.05;;;0.73;;
75516;SDS011;64097;52.548;13.406;2023-03-31T17:01:14;2.25;;;1.02;;
75516;SDS011;64097;52.548;13.406;2023-03-31T17:03:40;1.55;;;1.10;;
75516;SDS011;64097;52.548;13.406;2023-03-31T17:06:10;1.17;;;0.90;;
75516;SDS011;64097;52.548;13.406;2023-03-31T17:08:37;1.50;;;0.90;;
75516;SDS011;64097;52.548;13.406;2023-03-31T17:11:05;1.05;;;0.80;;
75516;SDS011;64097;52.548;13.406;2023-03-31T17:13:34;1.00;;;0.85;;
75516;SDS011;64097;52.548;13.406;2023-03-31T17:16:00;1.15;;;0.82;;
75516;SDS011;64097;52.548;13.406;2023-03-31T17:18:28;1.30;;;1.10;;
75516;SDS011;64097;52.548;13.406;2023-03-31T17:20:54;2.15;;;1.17;;
75516;SDS011;64097;52.548;13.406;2023-03-31T17:23:26;1.20;;;0.93;;
75516;SDS011;64097;52.548;13.406;2023-03-31T17:25:52;1.13;;;0.90;;
75516;SDS011;64097;52.548;13.406;2023-03-31T17:28:18;1.15;;;0.75;;
75516;SDS011;64097;52.548;13.406;2023-03-31T17:30:43;1.77;;;0.85;;
75516;SDS011;64097;52.548;13.406;2023-03-31T17:33:12;1.20;;;0.73;;
75516;SDS011;64097;52.548;13.406;2023-03-31T17:35:39;1.50;;;1.10;;
75516;SDS011;64097;52.548;13.406;2023-03-31T17:38:05;1.38;;;0.90;;
75516;SDS011;64097;52.548;13.406;2023-03-31T17:40:33;2.72;;;1.30;;
75516;SDS011;64097;52.548;13.406;2023-03-31T17:42:59;1.58;;;1.10;;
75516;SDS011;64097;52.548;13.406;2023-03-31T17:45:28;1.67;;;1.08;;
75516;SDS011;64097;52.548;13.406;2023-03-31T17:47:56;1.65;;;0.85;;
75516;SDS011;64097;52.548;13.406;2023-03-31T17:50:22;2.05;;;1.08;;
75516;SDS011;64097;52.548;13.406;2023-03-31T17:52:48;1.20;;;1.00;;
75516;SDS011;64097;52.548;13.406;2023-03-31T17:55:14;1.55;;;0.90;;
75516;SDS011;64097;52.548;13.406;2023-03-31T17:57:41;1.73;;;1.05;;
75516;SDS011;64097;52.548;13.406;2023-03-31T18:00:07;1.52;;;1.00;;
75516;SDS011;64097;52.548;13.406;2023-03-31T18:02:36;1.55;;;1.00;;
75516;SDS011;64097;52.548;13.406;2023-03-31T18:05:03;1.10;;;1.00;;
75516;SDS011;64097;52.548;13.406;2023-03-31T18:07:30;1.10;;;1.00;;
75516;SDS011;64097;52.548;13.406;2023-03-31T18:09:57;2.13;;;1.20;;
75516;SDS011;64097;52.548;13.406;2023-03-31T18:12:23;1.45;;;1.23;;
75516;SDS011;64097;52.548;13.406;2023-03-31T18:14:49;1.50;;;1.40;;
75516;SDS011;64097;52.548;13.406;2023-03-31T18:17:16;2.50;;;1.90;;
75516;SDS011;64097;52.548;13.406;2023-03-31T18:19:42;2.20;;;1.42;;
75516;SDS011;64097;52.548;13.406;2023-03-31T18:22:08;1.63;;;1.42;;
75516;SDS011;64097;52.548;13.406;2023-03-31T18:24:34;1.98;;;1.67;;
75516;SDS011;64097;52.548;13.406;2023-03-31T18:27:02;2.20;;;1.45;;
75516;SDS011;64097;52.548;13.406;2023-03-31T18:29:29;1.45;;;1.30;;
75516;SDS011;64097;52.548;13.406;2023-03-31T18:31:54;1.80;;;1.50;;
75516;SDS011;64097;52.548;13.406;2023-03-31T18:34:20;1.42;;;1.33;;
75516;SDS011;64097;52.548;13.406;2023-03-31T18:36:46;1.73;;;1.20;;
75516;SDS011;64097;52.548;13.406;2023-03-31T18:39:11;1.60;;;1.50;;
75516;SDS011;64097;52.548;13.406;2023-03-31T18:41:38;2.35;;;1.17;;
75516;SDS011;64097;52.548;13.406;2023-03-31T18:44:09;2.22;;;1.30;;
75516;SDS011;64097;52.548;13.406;2023-03-31T18:46:35;1.70;;;1.33;;
75516;SDS011;64097;52.548;13.406;2023-03-31T18:49:01;1.60;;;1.40;;
75516;SDS011;64097;52.548;13.406;2023-03-31T18:51:27;2.22;;;1.50;;
75516;SDS011;64097;52.548;13.406;2023-03-31T18:53:52;1.88;;;1.50;;
75516;SDS011;64097;52.548;13.406;2023-03-31T18:56:18;1.98;;;1.52;;
75516;SDS011;64097;52.548;13.406;2023-03-31T18:58:44;2.30;;;1.90;;
75516;SDS011;64097;52.548;13.406;2023-03-31T19:01:09;2.35;;;1.88;;
75516;SDS011;64097;52.548;13.406;2023-03-31T19:03:35;2.58;;;1.88;;
75516;SDS011;64097;52.548;13.406;2023-03-31T19:06:05;2.47;;;1.98;;
75516;SDS011;64097;52.548;13.406;2023-03-31T19:08:34;3.20;;;2.45;;
75516;SDS011;64097;52.548;13.406;2023-03-31T19:11:10;2.78;;;1.98;;
75516;SDS011;64097;52.548;13.406;2023-03-31T19:13:38;3.08;;;2.13;;
75516;SDS011;64097;52.548;13.406;2023-03-31T19:16:06;2.78;;;1.88;;
75516;SDS011;64097;52.548;13.406;2023-03-31T19:18:32;3.15;;;2.10;;
75516;SDS011;64097;52.548;13.406;2023-03-31T19:20:58;2.50;;;2.05;;
75516;SDS011;64097;52.548;13.406;2023-03-31T19:23:24;2.85;;;2.20;;
75516;SDS011;64097;52.548;13.406;2023-03-31T19:25:53;4.22;;;2.33;;
75516;SDS011;64097;52.548;13.406;2023-03-31T19:28:21;3.75;;;2.67;;
75516;SDS011;64097;52.548;13.406;2023-03-31T19:30:50;3.65;;;2.80;;
75516;SDS011;64097;52.548;13.406;2023-03-31T19:33:17;3.53;;;2.58;;
75516;SDS011;64097;52.548;13.406;2023-03-31T19:35:44;4.00;;;2.85;;
75516;SDS011;64097;52.548;13.406;2023-03-31T19:38:11;3.50;;;2.53;;
75516;SDS011;64097;52.548;13.406;2023-03-31T19:40:38;3.92;;;2.65;;
75516;SDS011;64097;52.548;13.406;2023-03-31T19:43:06;3.05;;;2.42;;
75516;SDS011;64097;52.548;13.406;2023-03-31T19:45:42;3.33;;;2.55;;
75516;SDS011;64097;52.548;13.406;2023-03-31T19:48:07;3.05;;;2.60;;
75516;SDS011;64097;52.548;13.406;2023-03-31T19:50:33;2.67;;;2.30;;
75516;SDS011;64097;52.548;13.406;2023-03-31T19:52:59;3.30;;;2.40;;
75516;SDS011;64097;52.548;13.406;2023-03-31T19:55:25;2.30;;;2.10;;
75516;SDS011;64097;52.548;13.406;2023-03-31T19:57:51;2.92;;;2.22;;
75516;SDS011;64097;52.548;13.406;2023-03-31T20:00:17;2.80;;;2.30;;
75516;SDS011;64097;52.548;13.406;2023-03-31T20:02:44;3.80;;;2.35;;
75516;SDS011;64097;52.548;13.406;2023-03-31T20:05:10;3.65;;;2.78;;
75516;SDS011;64097;52.548;13.406;2023-03-31T20:07:36;3.08;;;2.30;;
75516;SDS011;64097;52.548;13.406;2023-03-31T20:10:02;3.08;;;2.30;;
75516;SDS011;64097;52.548;13.406;2023-03-31T20:12:28;3.00;;;2.20;;
75516;SDS011;64097;52.548;13.406;2023-03-31T20:14:53;2.25;;;2.00;;
75516;SDS011;64097;52.548;13.406;2023-03-31T20:17:19;3.53;;;2.22;;
75516;SDS011;64097;52.548;13.406;2023-03-31T20:19:45;3.45;;;1.85;;
75516;SDS011;64097;52.548;13.406;2023-03-31T20:22:11;2.75;;;1.80;;
75516;SDS011;64097;52.548;13.406;2023-03-31T20:24:37;3.03;;;2.20;;
75516;SDS011;64097;52.548;13.406;2023-03-31T20:27:03;2.58;;;1.90;;
75516;SDS011;64097;52.548;13.406;2023-03-31T20:29:28;1.83;;;1.52;;
75516;SDS011;64097;52.548;13.406;2023-03-31T20:31:54;2.53;;;2.00;;
75516;SDS011;64097;52.548;13.406;2023-03-31T20:34:20;2.50;;;1.73;;
75516;SDS011;64097;52.548;13.406;2023-03-31T20:36:47;2.58;;;1.65;;
75516;SDS011;64097;52.548;13.406;2023-03-31T20:39:15;2.28;;;1.88;;
75516;SDS011;64097;52.548;13.406;2023-03-31T20:41:41;2.30;;;1.75;;
75516;SDS011;64097;52.548;13.406;2023-03-31T20:44:07;1.90;;;1.50;;
75516;SDS011;64097;52.548;13.406;2023-03-31T20:46:34;1.80;;;1.60;;
75516;SDS011;64097;52.548;13.406;2023-03-31T20:49:01;2.42;;;1.83;;
75516;SDS011;64097;52.548;13.406;2023-03-31T20:51:28;3.00;;;1.95;;
75516;SDS011;64097;52.548;13.406;2023-03-31T20:53:56;2.13;;;1.67;;
75516;SDS011;64097;52.548;13.406;2023-03-31T20:56:23;2.35;;;2.00;;
75516;SDS011;64097;52.548;13.406;2023-03-31T20:58:51;2.30;;;1.95;;
75516;SDS011;64097;52.548;13.406;2023-03-31T21:01:18;3.00;;;2.25;;
75516;SDS011;64097;52.548;13.406;2023-03-31T21:03:46;2.50;;;2.10;;
75516;SDS011;64097;52.548;13.406;2023-03-31T21:06:13;2.65;;;2.40;;
75516;SDS011;64097;52.548;13.406;2023-03-31T21:08:42;3.30;;;2.80;;
75516;SDS011;64097;52.548;13.406;2023-03-31T21:11:12;3.08;;;2.60;;
75516;SDS011;64097;52.548;13.406;2023-03-31T21:13:38;4.13;;;3.00;;
75516;SDS011;64097;52.548;13.406;2023-03-31T21:16:04;3.38;;;3.08;;
75516;SDS011;64097;52.548;13.406;2023-03-31T21:18:31;2.70;;;2.47;;
75516;SDS011;64097;52.548;13.406;2023-03-31T21:21:02;3.58;;;2.70;;
75516;SDS011;64097;52.548;13.406;2023-03-31T21:23:32;3.95;;;2.75;;
75516;SDS011;64097;52.548;13.406;2023-03-31T21:25:59;2.85;;;2.38;;
75516;SDS011;64097;52.548;13.406;2023-03-31T21:28:27;2.72;;;2.45;;
75516;SDS011;64097;52.548;13.406;2023-03-31T21:30:55;2.50;;;2.30;;
75516;SDS011;64097;52.548;13.406;2023-03-31T21:33:25;2.80;;;2.53;;
75516;SDS011;64097;52.548;13.406;2023-03-31T21:35:52;2.75;;;2.55;;
75516;SDS011;64097;52.548;13.406;2023-03-31T21:38:18;2.55;;;2.35;;
75516;SDS011;64097;52.548;13.406;2023-03-31T21:40:45;2.42;;;2.22;;
75516;SDS011;64097;52.548;13.406;2023-03-31T21:43:12;2.20;;;2.00;;
75516;SDS011;64097;52.548;13.406;2023-03-31T21:45:38;2.20;;;2.00;;
75516;SDS011;64097;52.548;13.406;2023-03-31T21:48:06;2.08;;;1.88;;
75516;SDS011;64097;52.548;13.406;2023-03-31T21:50:34;2.28;;;1.80;;
75516;SDS011;64097;52.548;13.406;2023-03-31T21:53:04;3.00;;;2.30;;
75516;SDS011;64097;52.548;13.406;2023-03-31T21:55:31;1.67;;;1.58;;
75516;SDS011;64097;52.548;13.406;2023-03-31T21:57:58;2.63;;;1.80;;
75516;SDS011;64097;52.548;13.406;2023-03-31T22:00:24;2.03;;;1.83;;
75516;SDS011;64097;52.548;13.406;2023-03-31T22:02:52;2.10;;;1.90;;
75516;SDS011;64097;52.548;13.406;2023-03-31T22:05:18;1.90;;;1.70;;
75516;SDS011;64097;52.548;13.406;2023-03-31T22:07:43;1.90;;;1.73;;
75516;SDS011;64097;52.548;13.406;2023-03-31T22:10:09;1.95;;;1.50;;
75516;SDS011;64097;52.548;13.406;2023-03-31T22:12:35;2.28;;;1.60;;
75516;SDS011;64097;52.548;13.406;2023-03-31T22:15:02;1.75;;;1.52;;
75516;SDS011;64097;52.548;13.406;2023-03-31T22:17:27;2.08;;;1.90;;
75516;SDS011;64097;52.548;13.406;2023-03-31T22:19:53;2.40;;;1.80;;
75516;SDS011;64097;52.548;13.406;2023-03-31T22:22:19;1.92;;;1.67;;
75516;SDS011;64097;52.548;13.406;2023-03-31T22:24:46;3.25;;;2.13;;
75516;SDS011;64097;52.548;13.406;2023-03-31T22:27:11;2.10;;;1.90;;
75516;SDS011;64097;52.548;13.406;2023-03-31T22:29:38;2.50;;;2.20;;
75516;SDS011;64097;52.548;13.406;2023-03-31T22:32:04;2.80;;;1.80;;
75516;SDS011;64097;52.548;13.406;2023-03-31T22:34:30;1.80;;;1.58;;
75516;SDS011;64097;52.548;13.406;2023-03-31T22:36:56;1.83;;;1.63;;
75516;SDS011;64097;52.548;13.406;2023-03-31T22:39:22;2.13;;;1.92;;
75516;SDS011;64097;52.548;13.406;2023-03-31T22:41:48;3.20;;;2.33;;
75516;SDS011;64097;52.548;13.406;2023-03-31T22:44:14;2.38;;;2.17;;
75516;SDS011;64097;52.548;13.406;2023-03-31T22:46:41;2.45;;;1.90;;
75516;SDS011;64097;52.548;13.406;2023-03-31T22:49:10;2.13;;;1.90;;
75516;SDS011;64097;52.548;13.406;2023-03-31T22:51:36;1.85;;;1.60;;
75516;SDS011;64097;52.548;13.406;2023-03-31T22:54:05;1.92;;;1.58;;
75516;SDS011;64097;52.548;13.406;2023-03-31T22:56:31;1.83;;;1.65;;
75516;SDS011;64097;52.548;13.406;2023-03-31T22:58:57;2.42;;;1.75;;
75516;SDS011;64097;52.548;13.406;2023-03-31T23:01:23;3.22;;;1.98;;
75516;SDS011;64097;52.548;13.406;2023-03-31T23:03:49;2.20;;;1.85;;
75516;SDS011;64097;52.548;13.406;2023-03-31T23:06:15;2.10;;;1.90;;
75516;SDS011;64097;52.548;13.406;2023-03-31T23:08:41;2.25;;;1.92;;
75516;SDS011;64097;52.548;13.406;2023-03-31T23:11:10;1.70;;;1.60;;
75516;SDS011;64097;52.548;13.406;2023-03-31T23:13:37;2.30;;;1.88;;
75516;SDS011;64097;52.548;13.406;2023-03-31T23:16:04;1.75;;;1.65;;
75516;SDS011;64097;52.548;13.406;2023-03-31T23:18:31;2.10;;;1.80;;
75516;SDS011;64097;52.548;13.406;2023-03-31T23:20:57;2.20;;;1.90;;
75516;SDS011;64097;52.548;13.406;2023-03-31T23:23:23;2.05;;;1.77;;